sensor_id;sensor_type;location;lat;lon;timestamp;P1;durP1;ratioP1;P2;durP2;ratioP2
19095;SDS011;9680;52.520;13.332;2022-11-11T00:00:59;7.57;;;2.40;;
19095;SDS011;9680;52.520;13.332;2022-11-11T00:03:44;8.93;;;2.23;;
19095;SDS011;9680;52.520;13.332;2022-11-11T00:06:28;9.97;;;2.20;;
19095;SDS011;9680;52.520;13.332;2022-11-11T00:09:11;12.27;;;2.60;;
19095;SDS011;9680;52.520;13.332;2022-11-11T00:11:55;9.70;;;2.33;;
19095;SDS011;9680;52.520;13.332;2022-11-11T00:14:39;9.43;;;2.77;;
19095;SDS011;9680;52.520;13.332;2022-11-11T00:17:23;7.83;;;2.80;;
19095;SDS011;9680;52.520;13.332;2022-11-11T00:20:26;7.83;;;2.60;;
19095;SDS011;9680;52.520;13.332;2022-11-11T00:23:29;10.63;;;2.60;;
19095;SDS011;9680;52.520;13.332;2022-11-11T00:26:32;9.17;;;1.90;;
19095;SDS011;9680;52.520;13.332;2022-11-11T00:29:16;7.93;;;2.60;;
19095;SDS011;9680;52.520;13.332;2022-11-11T00:32:01;8.03;;;2.70;;
19095;SDS011;9680;52.520;13.332;2022-11-11T00:35:04;12.37;;;2.37;;
19095;SDS011;9680;52.520;13.332;2022-11-11T00:38:07;6.00;;;2.30;;
19095;SDS011;9680;52.520;13.332;2022-11-11T00:40:53;9.07;;;2.50;;
19095;SDS011;9680;52.520;13.332;2022-11-11T00:43:37;8.77;;;2.53;;
19095;SDS011;9680;52.520;13.332;2022-11-11T00:46:21;9.97;;;2.60;;
19095;SDS011;9680;52.520;13.332;2022-11-11T00:49:24;7.73;;;2.30;;
19095;SDS011;9680;52.520;13.332;2022-11-11T00:52:27;9.80;;;2.37;;
19095;SDS011;9680;52.520;13.332;2022-11-11T00:55:12;6.53;;;2.23;;
19095;SDS011;9680;52.520;13.332;2022-11-11T00:57:57;8.70;;;2.30;;
19095;SDS011;9680;52.520;13.332;2022-11-11T01:00:40;9.93;;;2.50;;
19095;SDS011;9680;52.520;13.332;2022-11-11T01:03:25;10.13;;;2.53;;
19095;SDS011;9680;52.520;13.332;2022-11-11T01:06:11;4.23;;;2.00;;
19095;SDS011;9680;52.520;13.332;2022-11-11T01:08:56;11.27;;;2.60;;
19095;SDS011;9680;52.520;13.332;2022-11-11T01:11:40;10.30;;;2.50;;
19095;SDS011;9680;52.520;13.332;2022-11-11T01:14:25;8.87;;;2.43;;
19095;SDS011;9680;52.520;13.332;2022-11-11T01:17:09;8.17;;;2.30;;
19095;SDS011;9680;52.520;13.332;2022-11-11T01:19:53;9.43;;;2.27;;
19095;SDS011;9680;52.520;13.332;2022-11-11T01:22:37;8.67;;;2.77;;
19095;SDS011;9680;52.520;13.332;2022-11-11T01:25:21;6.90;;;2.20;;
19095;SDS011;9680;52.520;13.332;2022-11-11T01:28:05;8.60;;;2.53;;
19095;SDS011;9680;52.520;13.332;2022-11-11T01:30:51;7.23;;;2.50;;
19095;SDS011;9680;52.520;13.332;2022-11-11T01:33:36;8.63;;;2.50;;
19095;SDS011;9680;52.520;13.332;2022-11-11T01:36:21;9.40;;;3.03;;
19095;SDS011;9680;52.520;13.332;2022-11-11T01:39:10;10.00;;;2.60;;
19095;SDS011;9680;52.520;13.332;2022-11-11T01:41:54;8.23;;;2.23;;
19095;SDS011;9680;52.520;13.332;2022-11-11T01:44:45;12.93;;;2.97;;
19095;SDS011;9680;52.520;13.332;2022-11-11T01:47:30;9.57;;;2.53;;
19095;SDS011;9680;52.520;13.332;2022-11-11T01:50:35;10.30;;;2.43;;
19095;SDS011;9680;52.520;13.332;2022-11-11T01:53:19;7.03;;;2.53;;
19095;SDS011;9680;52.520;13.332;2022-11-11T01:56:03;8.77;;;2.50;;
19095;SDS011;9680;52.520;13.332;2022-11-11T01:58:48;7.90;;;2.53;;
19095;SDS011;9680;52.520;13.332;2022-11-11T02:01:34;5.23;;;2.53;;
19095;SDS011;9680;52.520;13.332;2022-11-11T02:04:19;8.47;;;2.50;;
19095;SDS011;9680;52.520;13.332;2022-11-11T02:07:23;7.33;;;2.33;;
19095;SDS011;9680;52.520;13.332;2022-11-11T02:10:09;8.00;;;2.23;;
19095;SDS011;9680;52.520;13.332;2022-11-11T02:12:53;7.77;;;2.50;;
19095;SDS011;9680;52.520;13.332;2022-11-11T02:15:56;17.37;;;3.13;;
19095;SDS011;9680;52.520;13.332;2022-11-11T02:18:41;10.43;;;2.80;;
19095;SDS011;9680;52.520;13.332;2022-11-11T02:21:32;8.87;;;2.50;;
19095;SDS011;9680;52.520;13.332;2022-11-11T02:24:19;7.33;;;2.50;;
19095;SDS011;9680;52.520;13.332;2022-11-11T02:27:05;6.57;;;2.67;;
19095;SDS011;9680;52.520;13.332;2022-11-11T02:29:55;7.57;;;2.77;;
19095;SDS011;9680;52.520;13.332;2022-11-11T02:32:42;6.17;;;2.37;;
19095;SDS011;9680;52.520;13.332;2022-11-11T02:35:31;8.07;;;2.73;;
19095;SDS011;9680;52.520;13.332;2022-11-11T02:38:16;10.03;;;3.10;;
19095;SDS011;9680;52.520;13.332;2022-11-11T02:41:00;6.73;;;2.30;;
19095;SDS011;9680;52.520;13.332;2022-11-11T02:44:03;9.97;;;2.60;;
19095;SDS011;9680;52.520;13.332;2022-11-11T02:46:47;9.80;;;2.60;;
19095;SDS011;9680;52.520;13.332;2022-11-11T02:49:31;8.77;;;2.50;;
19095;SDS011;9680;52.520;13.332;2022-11-11T02:52:15;7.20;;;2.40;;
19095;SDS011;9680;52.520;13.332;2022-11-11T02:55:00;6.67;;;2.50;;
19095;SDS011;9680;52.520;13.332;2022-11-11T02:57:45;10.40;;;2.60;;
19095;SDS011;9680;52.520;13.332;2022-11-11T03:00:29;6.47;;;2.30;;
19095;SDS011;9680;52.520;13.332;2022-11-11T03:03:13;12.97;;;2.30;;
19095;SDS011;9680;52.520;13.332;2022-11-11T03:05:57;4.50;;;2.23;;
19095;SDS011;9680;52.520;13.332;2022-11-11T03:08:41;7.63;;;2.57;;
19095;SDS011;9680;52.520;13.332;2022-11-11T03:11:25;7.33;;;2.70;;
19095;SDS011;9680;52.520;13.332;2022-11-11T03:14:12;9.27;;;2.90;;
19095;SDS011;9680;52.520;13.332;2022-11-11T03:16:56;6.37;;;2.47;;
19095;SDS011;9680;52.520;13.332;2022-11-11T03:19:59;11.87;;;2.70;;
19095;SDS011;9680;52.520;13.332;2022-11-11T03:25:50;11.43;;;2.70;;
19095;SDS011;9680;52.520;13.332;2022-11-11T03:28:34;11.50;;;2.87;;
19095;SDS011;9680;52.520;13.332;2022-11-11T03:31:18;9.00;;;2.97;;
19095;SDS011;9680;52.520;13.332;2022-11-11T03:34:02;7.90;;;2.33;;
19095;SDS011;9680;52.520;13.332;2022-11-11T03:37:03;9.17;;;2.63;;
19095;SDS011;9680;52.520;13.332;2022-11-11T03:40:10;10.43;;;2.80;;
19095;SDS011;9680;52.520;13.332;2022-11-11T03:42:54;13.17;;;2.80;;
19095;SDS011;9680;52.520;13.332;2022-11-11T03:45:39;6.60;;;2.53;;
19095;SDS011;9680;52.520;13.332;2022-11-11T03:48:24;8.57;;;2.57;;
19095;SDS011;9680;52.520;13.332;2022-11-11T03:51:09;12.03;;;2.97;;
19095;SDS011;9680;52.520;13.332;2022-11-11T03:53:53;8.77;;;2.60;;
19095;SDS011;9680;52.520;13.332;2022-11-11T03:56:37;11.57;;;2.63;;
19095;SDS011;9680;52.520;13.332;2022-11-11T03:59:21;9.73;;;2.67;;
19095;SDS011;9680;52.520;13.332;2022-11-11T04:02:06;7.00;;;3.00;;
19095;SDS011;9680;52.520;13.332;2022-11-11T04:05:12;9.10;;;2.40;;
19095;SDS011;9680;52.520;13.332;2022-11-11T04:08:16;5.53;;;2.80;;
19095;SDS011;9680;52.520;13.332;2022-11-11T04:11:42;6.07;;;2.70;;
19095;SDS011;9680;52.520;13.332;2022-11-11T04:14:26;11.47;;;2.77;;
19095;SDS011;9680;52.520;13.332;2022-11-11T04:17:29;13.27;;;2.80;;
19095;SDS011;9680;52.520;13.332;2022-11-11T04:20:13;7.43;;;2.50;;
19095;SDS011;9680;52.520;13.332;2022-11-11T04:23:16;11.60;;;2.90;;
19095;SDS011;9680;52.520;13.332;2022-11-11T04:26:00;8.87;;;2.40;;
19095;SDS011;9680;52.520;13.332;2022-11-11T04:28:44;4.63;;;2.60;;
19095;SDS011;9680;52.520;13.332;2022-11-11T04:31:48;16.80;;;2.80;;
19095;SDS011;9680;52.520;13.332;2022-11-11T04:34:55;6.37;;;2.70;;
19095;SDS011;9680;52.520;13.332;2022-11-11T04:37:47;15.07;;;3.47;;
19095;SDS011;9680;52.520;13.332;2022-11-11T04:40:55;8.60;;;2.73;;
19095;SDS011;9680;52.520;13.332;2022-11-11T04:43:48;9.10;;;2.60;;
19095;SDS011;9680;52.520;13.332;2022-11-11T04:46:51;7.07;;;2.43;;
19095;SDS011;9680;52.520;13.332;2022-11-11T04:49:35;8.30;;;2.30;;
19095;SDS011;9680;52.520;13.332;2022-11-11T04:52:19;5.90;;;2.60;;
19095;SDS011;9680;52.520;13.332;2022-11-11T04:55:10;10.90;;;2.40;;
19095;SDS011;9680;52.520;13.332;2022-11-11T04:58:13;11.37;;;2.80;;
19095;SDS011;9680;52.520;13.332;2022-11-11T05:00:58;8.23;;;2.37;;
19095;SDS011;9680;52.520;13.332;2022-11-11T05:03:43;7.00;;;2.60;;
19095;SDS011;9680;52.520;13.332;2022-11-11T05:06:27;9.43;;;2.70;;
19095;SDS011;9680;52.520;13.332;2022-11-11T05:09:30;6.70;;;2.70;;
19095;SDS011;9680;52.520;13.332;2022-11-11T05:12:14;10.93;;;3.00;;
19095;SDS011;9680;52.520;13.332;2022-11-11T05:14:58;7.53;;;2.27;;
19095;SDS011;9680;52.520;13.332;2022-11-11T05:18:01;4.80;;;2.40;;
19095;SDS011;9680;52.520;13.332;2022-11-11T05:21:06;6.73;;;2.37;;
19095;SDS011;9680;52.520;13.332;2022-11-11T05:24:06;8.07;;;2.40;;
19095;SDS011;9680;52.520;13.332;2022-11-11T05:27:09;10.63;;;3.07;;
19095;SDS011;9680;52.520;13.332;2022-11-11T05:29:53;14.83;;;2.47;;
19095;SDS011;9680;52.520;13.332;2022-11-11T05:32:37;8.70;;;2.77;;
19095;SDS011;9680;52.520;13.332;2022-11-11T05:35:23;8.00;;;2.90;;
19095;SDS011;9680;52.520;13.332;2022-11-11T05:38:07;7.50;;;2.37;;
19095;SDS011;9680;52.520;13.332;2022-11-11T05:41:03;8.27;;;2.43;;
19095;SDS011;9680;52.520;13.332;2022-11-11T05:43:48;5.43;;;2.33;;
19095;SDS011;9680;52.520;13.332;2022-11-11T05:46:31;7.10;;;2.33;;
19095;SDS011;9680;52.520;13.332;2022-11-11T05:49:15;8.80;;;2.70;;
19095;SDS011;9680;52.520;13.332;2022-11-11T05:51:59;9.33;;;2.50;;
19095;SDS011;9680;52.520;13.332;2022-11-11T05:54:43;6.37;;;2.20;;
19095;SDS011;9680;52.520;13.332;2022-11-11T05:57:28;4.67;;;2.30;;
19095;SDS011;9680;52.520;13.332;2022-11-11T06:00:12;8.03;;;2.50;;
19095;SDS011;9680;52.520;13.332;2022-11-11T06:03:03;7.40;;;2.63;;
19095;SDS011;9680;52.520;13.332;2022-11-11T06:05:51;8.23;;;2.60;;
19095;SDS011;9680;52.520;13.332;2022-11-11T06:08:35;6.03;;;2.20;;
19095;SDS011;9680;52.520;13.332;2022-11-11T06:11:19;7.37;;;2.40;;
19095;SDS011;9680;52.520;13.332;2022-11-11T06:14:03;11.73;;;2.70;;
19095;SDS011;9680;52.520;13.332;2022-11-11T06:16:48;10.13;;;2.63;;
19095;SDS011;9680;52.520;13.332;2022-11-11T06:19:32;8.43;;;2.70;;
19095;SDS011;9680;52.520;13.332;2022-11-11T06:22:16;6.60;;;2.83;;
19095;SDS011;9680;52.520;13.332;2022-11-11T06:25:24;8.60;;;2.70;;
19095;SDS011;9680;52.520;13.332;2022-11-11T06:28:31;6.43;;;2.60;;
19095;SDS011;9680;52.520;13.332;2022-11-11T06:31:17;7.27;;;2.33;;
19095;SDS011;9680;52.520;13.332;2022-11-11T06:34:06;7.00;;;2.60;;
19095;SDS011;9680;52.520;13.332;2022-11-11T06:36:49;9.37;;;2.20;;
19095;SDS011;9680;52.520;13.332;2022-11-11T06:39:33;9.00;;;2.83;;
19095;SDS011;9680;52.520;13.332;2022-11-11T06:42:18;8.50;;;2.10;;
19095;SDS011;9680;52.520;13.332;2022-11-11T06:45:02;7.50;;;2.87;;
19095;SDS011;9680;52.520;13.332;2022-11-11T06:47:46;11.13;;;2.77;;
19095;SDS011;9680;52.520;13.332;2022-11-11T06:50:33;7.87;;;2.73;;
19095;SDS011;9680;52.520;13.332;2022-11-11T06:53:18;6.90;;;2.30;;
19095;SDS011;9680;52.520;13.332;2022-11-11T06:56:04;14.30;;;2.63;;
19095;SDS011;9680;52.520;13.332;2022-11-11T06:58:50;9.00;;;2.53;;
19095;SDS011;9680;52.520;13.332;2022-11-11T07:01:34;8.67;;;2.97;;
19095;SDS011;9680;52.520;13.332;2022-11-11T07:04:18;6.17;;;2.40;;
19095;SDS011;9680;52.520;13.332;2022-11-11T07:07:02;7.53;;;2.30;;
19095;SDS011;9680;52.520;13.332;2022-11-11T07:09:46;8.83;;;2.63;;
19095;SDS011;9680;52.520;13.332;2022-11-11T07:12:30;10.83;;;2.53;;
19095;SDS011;9680;52.520;13.332;2022-11-11T07:15:14;9.50;;;2.60;;
19095;SDS011;9680;52.520;13.332;2022-11-11T07:17:58;6.50;;;2.40;;
19095;SDS011;9680;52.520;13.332;2022-11-11T07:20:43;7.73;;;2.40;;
19095;SDS011;9680;52.520;13.332;2022-11-11T07:23:27;6.93;;;2.40;;
19095;SDS011;9680;52.520;13.332;2022-11-11T07:26:11;4.77;;;2.20;;
19095;SDS011;9680;52.520;13.332;2022-11-11T07:28:55;6.50;;;2.37;;
19095;SDS011;9680;52.520;13.332;2022-11-11T07:31:39;5.87;;;2.47;;
19095;SDS011;9680;52.520;13.332;2022-11-11T07:34:24;6.10;;;2.40;;
19095;SDS011;9680;52.520;13.332;2022-11-11T07:37:08;8.17;;;2.37;;
19095;SDS011;9680;52.520;13.332;2022-11-11T07:39:52;8.20;;;2.50;;
19095;SDS011;9680;52.520;13.332;2022-11-11T07:42:38;8.57;;;2.43;;
19095;SDS011;9680;52.520;13.332;2022-11-11T07:45:22;13.93;;;3.00;;
19095;SDS011;9680;52.520;13.332;2022-11-11T07:48:07;7.47;;;2.67;;
19095;SDS011;9680;52.520;13.332;2022-11-11T07:50:51;10.60;;;3.17;;
19095;SDS011;9680;52.520;13.332;2022-11-11T07:53:37;8.30;;;2.90;;
19095;SDS011;9680;52.520;13.332;2022-11-11T07:56:21;5.87;;;2.70;;
19095;SDS011;9680;52.520;13.332;2022-11-11T07:59:06;14.27;;;2.93;;
19095;SDS011;9680;52.520;13.332;2022-11-11T08:01:50;11.17;;;2.60;;
19095;SDS011;9680;52.520;13.332;2022-11-11T08:04:34;8.37;;;2.50;;
19095;SDS011;9680;52.520;13.332;2022-11-11T08:07:18;7.87;;;2.33;;
19095;SDS011;9680;52.520;13.332;2022-11-11T08:10:02;7.40;;;2.47;;
19095;SDS011;9680;52.520;13.332;2022-11-11T08:12:52;11.50;;;2.80;;
19095;SDS011;9680;52.520;13.332;2022-11-11T08:15:55;8.93;;;2.47;;
19095;SDS011;9680;52.520;13.332;2022-11-11T08:18:40;7.53;;;2.60;;
19095;SDS011;9680;52.520;13.332;2022-11-11T08:21:24;9.10;;;2.67;;
19095;SDS011;9680;52.520;13.332;2022-11-11T08:24:08;6.77;;;2.63;;
19095;SDS011;9680;52.520;13.332;2022-11-11T08:26:52;6.93;;;2.50;;
19095;SDS011;9680;52.520;13.332;2022-11-11T08:29:36;10.03;;;2.67;;
19095;SDS011;9680;52.520;13.332;2022-11-11T08:32:20;7.37;;;2.50;;
19095;SDS011;9680;52.520;13.332;2022-11-11T08:35:07;8.13;;;2.90;;
19095;SDS011;9680;52.520;13.332;2022-11-11T08:37:51;7.03;;;2.70;;
19095;SDS011;9680;52.520;13.332;2022-11-11T08:40:36;5.67;;;2.40;;
19095;SDS011;9680;52.520;13.332;2022-11-11T08:43:20;10.10;;;2.30;;
19095;SDS011;9680;52.520;13.332;2022-11-11T08:46:05;9.33;;;2.47;;
19095;SDS011;9680;52.520;13.332;2022-11-11T08:48:49;6.77;;;2.53;;
19095;SDS011;9680;52.520;13.332;2022-11-11T08:51:33;9.87;;;2.60;;
19095;SDS011;9680;52.520;13.332;2022-11-11T08:54:17;8.53;;;2.40;;
19095;SDS011;9680;52.520;13.332;2022-11-11T08:57:02;7.93;;;2.20;;
19095;SDS011;9680;52.520;13.332;2022-11-11T08:59:46;7.80;;;2.70;;
19095;SDS011;9680;52.520;13.332;2022-11-11T09:02:29;7.77;;;2.30;;
19095;SDS011;9680;52.520;13.332;2022-11-11T09:05:13;6.23;;;2.30;;
19095;SDS011;9680;52.520;13.332;2022-11-11T09:08:01;11.63;;;2.05;;
19095;SDS011;9680;52.520;13.332;2022-11-11T09:10:49;8.63;;;2.30;;
19095;SDS011;9680;52.520;13.332;2022-11-11T09:13:33;7.57;;;2.60;;
19095;SDS011;9680;52.520;13.332;2022-11-11T09:16:17;5.85;;;2.08;;
19095;SDS011;9680;52.520;13.332;2022-11-11T09:19:01;9.52;;;2.60;;
19095;SDS011;9680;52.520;13.332;2022-11-11T09:21:45;8.53;;;2.90;;
19095;SDS011;9680;52.520;13.332;2022-11-11T09:24:29;8.25;;;2.25;;
19095;SDS011;9680;52.520;13.332;2022-11-11T09:27:13;8.30;;;2.55;;
19095;SDS011;9680;52.520;13.332;2022-11-11T09:29:57;9.93;;;2.38;;
19095;SDS011;9680;52.520;13.332;2022-11-11T09:32:41;11.15;;;2.60;;
19095;SDS011;9680;52.520;13.332;2022-11-11T09:35:26;6.85;;;2.35;;
19095;SDS011;9680;52.520;13.332;2022-11-11T09:38:10;6.07;;;2.17;;
19095;SDS011;9680;52.520;13.332;2022-11-11T09:40:56;8.35;;;2.40;;
19095;SDS011;9680;52.520;13.332;2022-11-11T09:43:53;8.35;;;2.08;;
19095;SDS011;9680;52.520;13.332;2022-11-11T09:46:40;9.38;;;2.35;;
19095;SDS011;9680;52.520;13.332;2022-11-11T09:50:02;8.02;;;2.33;;
19095;SDS011;9680;52.520;13.332;2022-11-11T09:52:52;5.37;;;1.77;;
19095;SDS011;9680;52.520;13.332;2022-11-11T09:55:39;7.85;;;2.60;;
19095;SDS011;9680;52.520;13.332;2022-11-11T09:58:28;6.13;;;1.95;;
19095;SDS011;9680;52.520;13.332;2022-11-11T10:01:19;6.07;;;2.10;;
19095;SDS011;9680;52.520;13.332;2022-11-11T10:04:21;5.07;;;2.28;;
19095;SDS011;9680;52.520;13.332;2022-11-11T10:07:35;4.83;;;2.03;;
19095;SDS011;9680;52.520;13.332;2022-11-11T10:10:48;6.25;;;2.00;;
19095;SDS011;9680;52.520;13.332;2022-11-11T10:13:34;7.90;;;2.13;;
19095;SDS011;9680;52.520;13.332;2022-11-11T10:16:29;5.10;;;2.03;;
19095;SDS011;9680;52.520;13.332;2022-11-11T10:19:33;7.15;;;2.00;;
19095;SDS011;9680;52.520;13.332;2022-11-11T10:22:40;6.53;;;2.20;;
19095;SDS011;9680;52.520;13.332;2022-11-11T10:25:26;6.93;;;2.15;;
19095;SDS011;9680;52.520;13.332;2022-11-11T10:28:15;5.60;;;2.03;;
19095;SDS011;9680;52.520;13.332;2022-11-11T10:31:02;6.78;;;2.15;;
19095;SDS011;9680;52.520;13.332;2022-11-11T10:34:02;4.57;;;2.13;;
19095;SDS011;9680;52.520;13.332;2022-11-11T10:36:53;5.68;;;1.77;;
19095;SDS011;9680;52.520;13.332;2022-11-11T10:42:44;5.18;;;2.15;;
19095;SDS011;9680;52.520;13.332;2022-11-11T10:45:29;7.50;;;2.20;;
19095;SDS011;9680;52.520;13.332;2022-11-11T10:51:37;6.25;;;1.83;;
19095;SDS011;9680;52.520;13.332;2022-11-11T10:54:37;5.32;;;1.90;;
19095;SDS011;9680;52.520;13.332;2022-11-11T11:00:42;5.55;;;1.83;;
19095;SDS011;9680;52.520;13.332;2022-11-11T11:03:30;5.65;;;2.00;;
19095;SDS011;9680;52.520;13.332;2022-11-11T11:06:27;4.60;;;1.73;;
19095;SDS011;9680;52.520;13.332;2022-11-11T11:09:16;6.55;;;2.53;;
19095;SDS011;9680;52.520;13.332;2022-11-11T11:12:17;4.85;;;1.88;;
19095;SDS011;9680;52.520;13.332;2022-11-11T11:15:26;8.63;;;1.77;;
19095;SDS011;9680;52.520;13.332;2022-11-11T11:18:14;7.25;;;1.83;;
19095;SDS011;9680;52.520;13.332;2022-11-11T11:21:17;9.07;;;3.30;;
19095;SDS011;9680;52.520;13.332;2022-11-11T11:24:02;7.15;;;1.92;;
19095;SDS011;9680;52.520;13.332;2022-11-11T11:26:50;7.95;;;1.85;;
19095;SDS011;9680;52.520;13.332;2022-11-11T11:29:39;4.88;;;1.60;;
19095;SDS011;9680;52.520;13.332;2022-11-11T11:32:31;5.22;;;1.75;;
19095;SDS011;9680;52.520;13.332;2022-11-11T11:38:41;5.72;;;1.60;;
19095;SDS011;9680;52.520;13.332;2022-11-11T11:41:44;6.38;;;1.80;;
19095;SDS011;9680;52.520;13.332;2022-11-11T11:44:37;3.63;;;1.83;;
19095;SDS011;9680;52.520;13.332;2022-11-11T11:47:38;4.10;;;1.60;;
19095;SDS011;9680;52.520;13.332;2022-11-11T11:50:40;6.85;;;1.60;;
19095;SDS011;9680;52.520;13.332;2022-11-11T11:59:16;6.40;;;1.65;;
19095;SDS011;9680;52.520;13.332;2022-11-11T12:05:33;4.75;;;1.42;;
19095;SDS011;9680;52.520;13.332;2022-11-11T12:21:25;3.55;;;1.58;;
19095;SDS011;9680;52.520;13.332;2022-11-11T12:30:32;5.60;;;1.30;;
19095;SDS011;9680;52.520;13.332;2022-11-11T12:33:33;7.22;;;1.40;;
19095;SDS011;9680;52.520;13.332;2022-11-11T12:45:47;3.90;;;1.38;;
19095;SDS011;9680;52.520;13.332;2022-11-11T13:00:21;3.47;;;1.30;;
19095;SDS011;9680;52.520;13.332;2022-11-11T13:03:31;4.30;;;1.40;;
19095;SDS011;9680;52.520;13.332;2022-11-11T13:12:45;5.97;;;1.40;;
19095;SDS011;9680;52.520;13.332;2022-11-11T13:15:46;4.05;;;1.73;;
19095;SDS011;9680;52.520;13.332;2022-11-11T13:21:47;1.80;;;1.10;;
19095;SDS011;9680;52.520;13.332;2022-11-11T13:24:38;5.18;;;1.38;;
19095;SDS011;9680;52.520;13.332;2022-11-11T13:33:36;4.75;;;1.30;;
19095;SDS011;9680;52.520;13.332;2022-11-11T13:36:25;4.55;;;1.38;;
19095;SDS011;9680;52.520;13.332;2022-11-11T13:39:45;4.30;;;2.00;;
19095;SDS011;9680;52.520;13.332;2022-11-11T13:42:27;6.32;;;1.48;;
19095;SDS011;9680;52.520;13.332;2022-11-11T13:45:26;5.70;;;1.38;;
19095;SDS011;9680;52.520;13.332;2022-11-11T13:57:20;2.80;;;1.25;;
19095;SDS011;9680;52.520;13.332;2022-11-11T14:06:27;6.93;;;1.38;;
19095;SDS011;9680;52.520;13.332;2022-11-11T14:12:37;2.88;;;1.50;;
19095;SDS011;9680;52.520;13.332;2022-11-11T14:21:10;6.43;;;1.60;;
19095;SDS011;9680;52.520;13.332;2022-11-11T14:27:27;5.07;;;1.70;;
19095;SDS011;9680;52.520;13.332;2022-11-11T14:30:34;5.07;;;1.70;;
19095;SDS011;9680;52.520;13.332;2022-11-11T14:39:46;5.35;;;1.50;;
19095;SDS011;9680;52.520;13.332;2022-11-11T14:51:37;3.03;;;1.48;;
19095;SDS011;9680;52.520;13.332;2022-11-11T14:54:31;3.83;;;1.52;;
19095;SDS011;9680;52.520;13.332;2022-11-11T14:57:18;3.33;;;1.57;;
19095;SDS011;9680;52.520;13.332;2022-11-11T15:06:24;3.53;;;1.63;;
19095;SDS011;9680;52.520;13.332;2022-11-11T15:09:41;4.30;;;1.77;;
19095;SDS011;9680;52.520;13.332;2022-11-11T15:25:32;5.35;;;1.90;;
19095;SDS011;9680;52.520;13.332;2022-11-11T15:31:32;4.78;;;2.00;;
19095;SDS011;9680;52.520;13.332;2022-11-11T15:37:17;4.30;;;1.70;;
19095;SDS011;9680;52.520;13.332;2022-11-11T15:40:05;6.10;;;2.30;;
19095;SDS011;9680;52.520;13.332;2022-11-11T15:42:50;7.13;;;2.03;;
19095;SDS011;9680;52.520;13.332;2022-11-11T15:45:35;5.07;;;2.17;;
19095;SDS011;9680;52.520;13.332;2022-11-11T15:48:32;7.97;;;2.15;;
19095;SDS011;9680;52.520;13.332;2022-11-11T15:51:27;4.97;;;1.80;;
19095;SDS011;9680;52.520;13.332;2022-11-11T16:00:24;9.33;;;3.00;;
19095;SDS011;9680;52.520;13.332;2022-11-11T16:03:14;8.55;;;2.50;;
19095;SDS011;9680;52.520;13.332;2022-11-11T16:06:01;6.57;;;2.40;;
19095;SDS011;9680;52.520;13.332;2022-11-11T16:08:49;9.67;;;2.50;;
19095;SDS011;9680;52.520;13.332;2022-11-11T16:11:37;9.23;;;2.27;;
19095;SDS011;9680;52.520;13.332;2022-11-11T16:14:32;5.63;;;2.50;;
19095;SDS011;9680;52.520;13.332;2022-11-11T16:17:25;8.20;;;2.57;;
19095;SDS011;9680;52.520;13.332;2022-11-11T16:20:17;8.00;;;2.77;;
19095;SDS011;9680;52.520;13.332;2022-11-11T16:23:05;6.30;;;2.27;;
19095;SDS011;9680;52.520;13.332;2022-11-11T16:25:51;5.90;;;2.33;;
19095;SDS011;9680;52.520;13.332;2022-11-11T16:28:45;6.30;;;2.70;;
19095;SDS011;9680;52.520;13.332;2022-11-11T16:31:36;5.77;;;2.60;;
19095;SDS011;9680;52.520;13.332;2022-11-11T16:34:23;5.40;;;2.40;;
19095;SDS011;9680;52.520;13.332;2022-11-11T16:37:13;9.37;;;2.50;;
19095;SDS011;9680;52.520;13.332;2022-11-11T16:46:15;12.17;;;4.23;;
19095;SDS011;9680;52.520;13.332;2022-11-11T16:49:25;10.57;;;2.53;;
19095;SDS011;9680;52.520;13.332;2022-11-11T16:52:15;6.53;;;2.43;;
19095;SDS011;9680;52.520;13.332;2022-11-11T16:55:04;4.97;;;1.97;;
19095;SDS011;9680;52.520;13.332;2022-11-11T16:57:51;8.90;;;2.50;;
19095;SDS011;9680;52.520;13.332;2022-11-11T17:00:35;12.83;;;4.10;;
19095;SDS011;9680;52.520;13.332;2022-11-11T17:03:22;8.03;;;3.17;;
19095;SDS011;9680;52.520;13.332;2022-11-11T17:06:10;8.67;;;2.23;;
19095;SDS011;9680;52.520;13.332;2022-11-11T17:08:54;7.17;;;2.33;;
19095;SDS011;9680;52.520;13.332;2022-11-11T17:14:27;7.00;;;2.70;;
19095;SDS011;9680;52.520;13.332;2022-11-11T17:17:12;13.77;;;2.77;;
19095;SDS011;9680;52.520;13.332;2022-11-11T17:19:57;7.10;;;3.00;;
19095;SDS011;9680;52.520;13.332;2022-11-11T17:22:45;7.10;;;2.40;;
19095;SDS011;9680;52.520;13.332;2022-11-11T17:25:33;6.43;;;2.90;;
19095;SDS011;9680;52.520;13.332;2022-11-11T17:28:17;12.07;;;3.27;;
19095;SDS011;9680;52.520;13.332;2022-11-11T17:31:09;8.43;;;3.23;;
19095;SDS011;9680;52.520;13.332;2022-11-11T17:33:55;10.27;;;3.10;;
19095;SDS011;9680;52.520;13.332;2022-11-11T17:36:39;7.70;;;3.00;;
19095;SDS011;9680;52.520;13.332;2022-11-11T17:39:23;9.43;;;2.73;;
19095;SDS011;9680;52.520;13.332;2022-11-11T17:42:07;8.93;;;3.30;;
19095;SDS011;9680;52.520;13.332;2022-11-11T17:44:51;6.13;;;3.00;;
19095;SDS011;9680;52.520;13.332;2022-11-11T17:47:35;11.07;;;3.70;;
19095;SDS011;9680;52.520;13.332;2022-11-11T17:50:19;9.40;;;3.57;;
19095;SDS011;9680;52.520;13.332;2022-11-11T17:53:06;11.80;;;3.87;;
19095;SDS011;9680;52.520;13.332;2022-11-11T17:55:51;9.77;;;3.80;;
19095;SDS011;9680;52.520;13.332;2022-11-11T17:58:35;13.67;;;4.60;;
19095;SDS011;9680;52.520;13.332;2022-11-11T18:01:20;9.30;;;3.70;;
19095;SDS011;9680;52.520;13.332;2022-11-11T18:04:04;11.13;;;4.10;;
19095;SDS011;9680;52.520;13.332;2022-11-11T18:06:49;9.50;;;3.90;;
19095;SDS011;9680;52.520;13.332;2022-11-11T18:09:33;10.37;;;3.80;;
19095;SDS011;9680;52.520;13.332;2022-11-11T18:12:17;13.63;;;4.60;;
19095;SDS011;9680;52.520;13.332;2022-11-11T18:15:01;13.50;;;4.77;;
19095;SDS011;9680;52.520;13.332;2022-11-11T18:17:45;13.37;;;4.57;;
19095;SDS011;9680;52.520;13.332;2022-11-11T18:20:29;9.60;;;4.30;;
19095;SDS011;9680;52.520;13.332;2022-11-11T18:23:14;10.50;;;4.00;;
19095;SDS011;9680;52.520;13.332;2022-11-11T18:25:58;12.90;;;4.43;;
19095;SDS011;9680;52.520;13.332;2022-11-11T18:28:42;12.17;;;4.47;;
19095;SDS011;9680;52.520;13.332;2022-11-11T18:31:26;10.43;;;4.30;;
19095;SDS011;9680;52.520;13.332;2022-11-11T18:34:10;9.57;;;4.23;;
19095;SDS011;9680;52.520;13.332;2022-11-11T18:36:54;12.17;;;4.50;;
19095;SDS011;9680;52.520;13.332;2022-11-11T18:39:38;8.87;;;4.27;;
19095;SDS011;9680;52.520;13.332;2022-11-11T18:42:22;10.00;;;4.57;;
19095;SDS011;9680;52.520;13.332;2022-11-11T18:45:07;10.83;;;4.77;;
19095;SDS011;9680;52.520;13.332;2022-11-11T18:47:51;12.50;;;4.80;;
19095;SDS011;9680;52.520;13.332;2022-11-11T18:50:35;11.93;;;4.90;;
19095;SDS011;9680;52.520;13.332;2022-11-11T18:53:19;16.70;;;4.90;;
19095;SDS011;9680;52.520;13.332;2022-11-11T18:56:13;13.57;;;5.00;;
19095;SDS011;9680;52.520;13.332;2022-11-11T18:58:59;10.97;;;4.73;;
19095;SDS011;9680;52.520;13.332;2022-11-11T19:01:43;11.90;;;5.37;;
19095;SDS011;9680;52.520;13.332;2022-11-11T19:04:27;16.90;;;5.00;;
19095;SDS011;9680;52.520;13.332;2022-11-11T19:07:11;17.00;;;5.73;;
19095;SDS011;9680;52.520;13.332;2022-11-11T19:09:55;12.13;;;5.17;;
19095;SDS011;9680;52.520;13.332;2022-11-11T19:12:40;16.70;;;5.30;;
19095;SDS011;9680;52.520;13.332;2022-11-11T19:15:24;13.60;;;5.63;;
19095;SDS011;9680;52.520;13.332;2022-11-11T19:18:09;13.83;;;5.90;;
19095;SDS011;9680;52.520;13.332;2022-11-11T19:20:53;12.73;;;5.53;;
19095;SDS011;9680;52.520;13.332;2022-11-11T19:23:37;14.30;;;5.70;;
19095;SDS011;9680;52.520;13.332;2022-11-11T19:26:22;14.57;;;6.57;;
19095;SDS011;9680;52.520;13.332;2022-11-11T19:29:08;18.43;;;6.40;;
19095;SDS011;9680;52.520;13.332;2022-11-11T19:31:53;14.77;;;6.30;;
19095;SDS011;9680;52.520;13.332;2022-11-11T19:34:37;18.13;;;6.73;;
19095;SDS011;9680;52.520;13.332;2022-11-11T19:37:22;18.13;;;6.60;;
19095;SDS011;9680;52.520;13.332;2022-11-11T19:40:07;18.30;;;6.53;;